Time;durP1;ratioP1;P1;durP2;ratioP2;P2;SDS_P1;SDS_P2;PMS_P1;PMS_P2;Temp;Humidity;BMP_temperature;BMP_pressure;BME280_temperature;BME280_humidity;BME280_pressure;Samples;Min_cycle;Max_cycle;Signal;HPM_P1;HPM_P2
2023/06/26 00:02:32;;;;;;;10.10;6.30;;;;;;;21.01;53.23;99671.25;7739014;32;40048;-77
2023/06/26 00:06:49;;;;;;;10.20;5.90;;;;;;;20.88;53.26;99674.38;7738972;32;38735;-77
2023/06/26 00:11:05;;;;;;;10.43;6.35;;;;;;;21.09;52.65;99677.03;7738812;32;37929;-77
2023/06/26 00:15:22;;;;;;;8.98;5.85;;;;;;;20.84;53.46;99677.03;7738893;32;40090;-77
2023/06/26 00:19:38;;;;;;;12.15;6.40;;;;;;;20.91;53.08;99677.25;7738271;32;40043;-79
2023/06/26 00:23:54;;;;;;;9.93;6.43;;;;;;;20.89;53.08;99681.53;7738845;32;37967;-77
2023/06/26 00:28:10;;;;;;;11.85;5.97;;;;;;;20.63;53.94;99672.34;7738931;32;36924;-76
2023/06/26 00:32:27;;;;;;;13.55;5.87;;;;;;;20.63;53.94;99664.03;7738780;32;39330;-76
2023/06/26 00:36:43;;;;;;;9.85;6.45;;;;;;;20.72;53.73;99671.47;7738263;32;40815;-76
2023/06/26 00:40:59;;;;;;;9.35;6.00;;;;;;;20.57;54.09;99673.69;7738581;32;38795;-76
2023/06/26 00:45:16;;;;;;;12.27;6.53;;;;;;;20.68;53.45;99676.03;7738547;32;37401;-76
2023/06/26 00:49:45;;;;;;;11.48;6.60;;;;;;;20.93;52.77;99680.50;7735936;32;39828;-76
2023/06/26 00:54:01;;;;;;;10.68;6.43;;;;;;;20.38;54.36;99679.72;7738359;32;40094;-76
2023/06/26 00:58:18;;;;;;;9.48;6.35;;;;;;;20.31;54.59;99681.44;7738127;32;37902;-76
2023/06/26 01:02:34;;;;;;;9.82;6.40;;;;;;;20.24;54.82;99677.25;7738373;32;37138;-77
2023/06/26 01:06:51;;;;;;;12.70;6.43;;;;;;;20.35;54.53;99672.13;7738395;32;39173;-76
2023/06/26 01:11:08;;;;;;;11.98;6.28;;;;;;;20.24;54.81;99668.94;7738155;32;39938;-77
2023/06/26 01:15:25;;;;;;;12.18;6.80;;;;;;;20.14;55.02;99661.06;7724441;32;37842;-77
2023/06/26 01:19:42;;;;;;;14.77;6.97;;;;;;;20.15;55.06;99668.22;7709885;32;37174;-76
2023/06/26 01:24:27;;;;;;;11.23;6.75;;;;;;;19.97;55.72;99667.59;7710101;32;39109;-76
2023/06/26 01:28:45;;;;;;;10.82;6.65;;;;;;;20.03;55.39;99655.16;7711226;32;39968;-76
2023/06/26 01:33:02;;;;;;;13.30;7.30;;;;;;;20.20;54.85;99654.19;7712141;32;37802;-76
2023/06/26 01:37:18;;;;;;;10.68;6.80;;;;;;;20.00;55.36;99660.56;7711337;32;36790;-77
2023/06/26 01:41:36;;;;;;;12.55;6.68;;;;;;;19.97;55.41;99652.91;7697343;32;39030;-76
2023/06/26 01:45:54;;;;;;;13.90;6.80;;;;;;;19.74;56.06;99652.44;7698683;32;40030;-77
2023/06/26 01:50:16;;;;;;;11.57;6.85;;;;;;;19.60;56.60;99655.44;7736851;32;36980;-76
2023/06/26 01:54:39;;;;;;;14.63;6.40;;;;;;;19.61;56.64;99654.28;7724246;32;37853;-77
2023/06/26 01:58:56;;;;;;;12.73;6.80;;;;;;;19.60;56.46;99653.50;7724580;32;39376;-77
2023/06/26 02:03:12;;;;;;;13.15;6.95;;;;;;;19.64;56.05;99650.87;7723893;32;39793;-76
2023/06/26 02:07:29;;;;;;;12.57;7.05;;;;;;;19.47;56.59;99652.63;7723419;32;38744;-76
2023/06/26 02:11:45;;;;;;;11.05;6.82;;;;;;;19.40;56.90;99643.22;7723652;32;37378;-75
2023/06/26 02:16:02;;;;;;;11.20;7.10;;;;;;;19.74;55.83;99653.25;7736952;32;39327;-76
2023/06/26 02:20:18;;;;;;;10.35;6.62;;;;;;;19.66;55.82;99657.69;7737227;32;39979;-77
2023/06/26 02:24:34;;;;;;;10.32;6.37;;;;;;;19.61;56.05;99651.53;7737143;32;38755;-76
2023/06/26 02:28:51;;;;;;;10.18;6.43;;;;;;;19.48;56.47;99656.19;7736984;32;37696;-76
2023/06/26 02:33:07;;;;;;;11.80;6.30;;;;;;;19.31;57.04;99651.56;7737185;32;39424;-76
2023/06/26 02:37:23;;;;;;;10.15;6.22;;;;;;;19.48;56.77;99662.50;7736666;32;41004;-76
2023/06/26 02:41:40;;;;;;;11.50;7.00;;;;;;;19.40;57.17;99654.28;7736565;32;38643;-76
2023/06/26 02:45:56;;;;;;;10.07;6.53;;;;;;;19.32;57.49;99665.03;7736512;32;37733;-76
2023/06/26 02:50:12;;;;;;;13.40;7.53;;;;;;;19.19;57.84;99660.56;7736293;32;39974;-76
2023/06/26 02:54:28;;;;;;;10.93;7.03;;;;;;;19.06;58.12;99667.94;7736494;32;40557;-75
2023/06/26 02:58:45;;;;;;;11.85;6.82;;;;;;;18.97;58.23;99664.38;7738004;32;38573;-76
2023/06/26 03:03:01;;;;;;;12.68;6.68;;;;;;;18.95;58.26;99667.50;7739819;32;37333;-77
2023/06/26 03:07:18;;;;;;;11.60;6.43;;;;;;;19.10;57.60;99665.31;7739743;32;39350;-77
2023/06/26 03:11:34;;;;;;;14.23;7.05;;;;;;;19.02;58.04;99661.44;7739530;32;40875;-77
2023/06/26 03:15:50;;;;;;;10.13;6.35;;;;;;;18.90;58.33;99670.44;7739275;32;38005;-77
2023/06/26 03:20:07;;;;;;;10.85;6.72;;;;;;;19.02;58.11;99672.50;7738524;32;36791;-76
2023/06/26 03:24:23;;;;;;;12.23;6.78;;;;;;;19.02;58.00;99666.97;7739402;32;39346;-76
2023/06/26 03:28:40;;;;;;;10.85;6.47;;;;;;;19.01;58.27;99670.88;7739418;32;39913;-76
2023/06/26 03:32:57;;;;;;;11.93;7.05;;;;;;;19.07;58.17;99683.34;7739316;32;38602;-77
2023/06/26 03:37:13;;;;;;;12.23;6.43;;;;;;;18.73;59.38;99682.31;7725643;32;37396;-76
2023/06/26 03:41:30;;;;;;;12.77;6.20;;;;;;;19.06;58.18;99679.00;7739306;32;39305;-77
2023/06/26 03:45:46;;;;;;;13.82;6.95;;;;;;;19.07;58.10;99677.03;7738889;32;40018;-76
2023/06/26 03:50:03;;;;;;;14.05;6.40;;;;;;;19.00;58.53;99669.25;7738984;32;37525;-76
2023/06/26 03:54:19;;;;;;;10.50;6.65;;;;;;;19.16;58.30;99671.47;7739226;32;37233;-76
2023/06/26 03:58:35;;;;;;;12.68;6.93;;;;;;;19.08;58.59;99668.41;7739104;32;40171;-77
2023/06/26 04:02:52;;;;;;;9.50;6.45;;;;;;;19.09;58.86;99681.09;7739129;32;39915;-77
2023/06/26 04:07:08;;;;;;;10.02;6.10;;;;;;;19.18;58.85;99681.06;7738937;32;38758;-72
2023/06/26 04:11:26;;;;;;;12.05;6.82;;;;;;;19.03;59.38;99678.84;7738050;32;36829;-76
2023/06/26 04:15:42;;;;;;;11.30;6.70;;;;;;;19.35;58.98;99694.00;7725226;32;40138;-76
2023/06/26 04:19:58;;;;;;;14.50;7.30;;;;;;;19.43;58.21;99695.06;7738904;32;39833;-76
2023/06/26 04:24:15;;;;;;;11.32;6.80;;;;;;;19.43;58.09;99690.34;7738743;32;37884;-76
2023/06/26 04:28:32;;;;;;;12.68;6.85;;;;;;;19.49;58.19;99689.03;7738787;32;37087;-76
2023/06/26 04:32:49;;;;;;;10.70;6.55;;;;;;;19.48;58.30;99686.59;7738689;32;40016;-76
2023/06/26 04:37:06;;;;;;;12.95;6.78;;;;;;;19.45;58.63;99685.28;7738546;32;40842;-76
2023/06/26 04:41:22;;;;;;;13.13;7.28;;;;;;;19.50;58.44;99687.84;7738150;32;38763;-76
2023/06/26 04:45:39;;;;;;;14.05;6.82;;;;;;;19.74;58.12;99691.97;7738092;32;37035;-77
2023/06/26 04:49:55;;;;;;;10.93;6.82;;;;;;;19.72;57.92;99687.91;7738398;32;40132;-76
2023/06/26 04:54:12;;;;;;;11.60;6.97;;;;;;;19.71;58.27;99689.84;7738425;32;39945;-78
2023/06/26 04:58:29;;;;;;;11.27;7.00;;;;;;;19.91;57.70;99693.00;7738267;32;37523;-79
2023/06/26 05:02:45;;;;;;;20.77;7.47;;;;;;;20.18;57.05;99678.63;7738342;32;37423;-80
2023/06/26 05:07:01;;;;;;;15.73;7.53;;;;;;;19.77;58.59;99690.50;7737517;32;40110;-72
2023/06/26 05:11:18;;;;;;;11.27;6.50;;;;;;;20.00;58.34;99693.75;7737506;32;40861;-80
2023/06/26 05:15:34;;;;;;;11.70;6.37;;;;;;;20.71;57.22;99694.75;7738133;32;38100;-74
2023/06/26 05:19:50;;;;;;;10.07;6.15;;;;;;;20.91;56.43;99693.09;7736329;32;37964;-73
2023/06/26 05:24:08;;;;;;;12.27;6.68;;;;;;;21.13;55.38;99691.84;7738271;32;38979;-72
2023/06/26 05:28:25;;;;;;;11.20;6.28;;;;;;;21.23;53.85;99691.38;7737848;32;40853;-79
2023/06/26 05:32:44;;;;;;;12.85;6.68;;;;;;;21.40;53.69;99687.56;7736599;32;37865;-78
2023/06/26 05:37:01;;;;;;;12.50;6.37;;;;;;;21.22;54.83;99692.53;7710330;32;36296;-81
2023/06/26 05:41:19;;;;;;;11.75;7.45;;;;;;;21.22;55.62;99691.72;7721905;32;39302;-78
2023/06/26 05:45:35;;;;;;;12.23;7.28;;;;;;;21.62;54.78;99691.84;7717042;32;40733;-77
2023/06/26 05:49:52;;;;;;;14.13;7.50;;;;;;;20.78;56.99;99695.00;7733333;32;37804;-79
2023/06/26 05:54:09;;;;;;;14.32;7.32;;;;;;;20.62;58.14;99692.88;7682619;32;37137;-78
2023/06/26 05:58:27;;;;;;;11.73;7.18;;;;;;;20.79;57.33;99696.63;7682689;32;39403;-78
2023/06/26 06:02:44;;;;;;;11.20;6.78;;;;;;;21.16;56.72;99693.91;7702568;32;40375;-77
2023/06/26 06:07:00;;;;;;;12.73;6.60;;;;;;;21.57;54.96;99686.53;7706448;32;37903;-78
2023/06/26 06:11:17;;;;;;;11.20;6.62;;;;;;;21.34;55.82;99695.31;7710084;32;35401;-77
2023/06/26 06:15:33;;;;;;;9.50;5.95;;;;;;;21.72;54.56;99688.59;7708505;32;40096;-77
2023/06/26 06:19:49;;;;;;;10.07;6.12;;;;;;;21.89;52.72;99697.84;7710074;32;38028;-77
2023/06/26 06:24:09;;;;;;;11.45;6.30;;;;;;;21.86;52.36;99687.44;7709647;32;38618;-78
2023/06/26 06:28:25;;;;;;;12.13;6.80;;;;;;;21.98;52.10;99694.91;7710089;32;37009;-81
2023/06/26 06:32:42;;;;;;;10.18;6.15;;;;;;;22.15;51.16;99683.53;7708407;32;40074;-80
2023/06/26 06:36:58;;;;;;;10.57;6.25;;;;;;;22.74;51.23;99695.87;7707600;32;40251;-80
2023/06/26 06:41:15;;;;;;;11.65;5.87;;;;;;;22.96;49.91;99688.94;7684631;32;37542;-78
2023/06/26 06:45:38;;;;;;;17.05;6.75;;;;;;;23.44;50.13;99697.28;7682921;32;37228;-80
2023/06/26 06:49:55;;;;;;;10.13;5.78;;;;;;;23.60;49.39;99689.72;7683001;32;39416;-80
2023/06/26 06:54:12;;;;;;;10.05;6.05;;;;;;;23.89;48.98;99684.81;7730801;32;38980;-79
2023/06/26 06:58:28;;;;;;;12.37;5.95;;;;;;;23.79;49.18;99679.78;7735911;32;37552;-79
2023/06/26 07:02:46;;;;;;;13.50;6.50;;;;;;;23.77;48.88;99687.72;7736340;32;36816;-79
2023/06/26 07:07:02;;;;;;;9.95;6.50;;;;;;;23.59;50.02;99688.13;7700764;32;39350;-80
2023/06/26 07:11:19;;;;;;;10.43;6.20;;;;;;;22.97;50.85;99690.53;7709382;32;39886;-71
2023/06/26 07:15:35;;;;;;;12.00;6.85;;;;;;;22.96;51.72;99697.25;7709157;32;37965;-71
2023/06/26 07:19:51;;;;;;;12.30;5.60;;;;;;;23.41;50.73;99692.44;7709162;32;37191;-71
2023/06/26 07:24:09;;;;;;;9.82;5.72;;;;;;;23.57;51.82;99689.63;7709204;32;40074;-71
2023/06/26 07:28:25;;;;;;;11.82;6.15;;;;;;;23.74;49.33;99689.22;7729081;32;40900;-79
2023/06/26 07:32:44;;;;;;;11.57;5.85;;;;;;;23.86;48.59;99691.09;7735325;32;37848;-80
2023/06/26 07:37:01;;;;;;;8.05;4.93;;;;;;;23.76;48.92;99688.87;7735565;32;36903;-73
2023/06/26 07:41:17;;;;;;;10.85;5.32;;;;;;;24.27;47.61;99683.22;7735508;32;39523;-72
2023/06/26 07:45:33;;;;;;;9.05;5.82;;;;;;;24.64;48.19;99681.97;7724148;32;40865;-73
2023/06/26 07:49:49;;;;;;;8.80;5.20;;;;;;;24.86;46.12;99680.37;7739270;32;38796;-81
2023/06/26 07:54:06;;;;;;;10.10;5.60;;;;;;;24.91;47.13;99680.87;7739158;32;37256;-81
2023/06/26 07:58:22;;;;;;;11.02;5.15;;;;;;;24.90;45.96;99679.25;7739187;32;39362;-80
2023/06/26 08:02:39;;;;;;;8.63;5.35;;;;;;;25.09;46.94;99681.19;7739194;32;40545;-80
2023/06/26 08:06:57;;;;;;;9.30;5.07;;;;;;;25.08;44.82;99681.56;7739001;32;38793;-81
2023/06/26 08:11:13;;;;;;;15.40;5.97;;;;;;;25.18;44.45;99680.94;7739190;32;38004;-81
2023/06/26 08:15:30;;;;;;;11.35;5.78;;;;;;;25.37;46.47;99685.66;7739111;32;39275;-81
2023/06/26 08:19:46;;;;;;;17.55;5.78;;;;;;;25.40;46.38;99684.88;7739000;32;40050;-81
2023/06/26 08:24:03;;;;;;;15.75;6.20;;;;;;;25.57;45.45;99686.34;7738593;32;38501;-81
2023/06/26 08:28:19;;;;;;;9.40;5.07;;;;;;;25.02;45.32;99694.19;7733183;32;37172;-81
2023/06/26 08:32:35;;;;;;;8.80;5.55;;;;;;;25.14;45.13;99685.62;7738656;32;40100;-81
2023/06/26 08:36:52;;;;;;;11.48;5.82;;;;;;;25.65;44.31;99684.47;7738719;32;39639;-81
2023/06/26 08:41:09;;;;;;;13.07;6.07;;;;;;;25.98;42.84;99688.53;7737865;32;37863;-80
2023/06/26 08:45:28;;;;;;;11.02;5.70;;;;;;;25.75;43.79;99686.63;7716673;32;36426;-80
2023/06/26 08:50:11;;;;;;;11.30;5.45;;;;;;;26.20;43.44;99687.63;7724174;32;40187;-81
2023/06/26 08:54:30;;;;;;;;;;;;;;;26.02;43.20;99686.59;7718032;32;39837;-80
2023/06/26 08:58:47;;;;;;;10.90;5.53;;;;;;;26.54;42.66;99675.63;7732891;32;36941;-81
2023/06/26 09:03:05;;;;;;;8.48;5.32;;;;;;;26.50;41.37;99677.59;7738145;32;37223;-81
2023/06/26 09:07:21;;;;;;;8.43;4.65;;;;;;;25.94;42.05;99684.84;7710137;32;41644;-74
2023/06/26 09:11:38;;;;;;;8.95;5.18;;;;;;;26.46;41.44;99683.16;7736829;32;39890;-74
2023/06/26 09:15:55;;;;;;;8.20;5.20;;;;;;;26.60;41.84;99680.50;7720338;32;38063;-76
2023/06/26 09:20:14;;;;;;;12.05;5.30;;;;;;;26.79;40.53;99682.31;7720290;32;37253;-80
2023/06/26 09:24:31;;;;;;;9.15;5.32;;;;;;;26.55;40.91;99680.84;7719880;32;39663;-80
2023/06/26 09:28:48;;;;;;;8.93;4.57;;;;;;;26.74;41.82;99673.47;7719943;32;39938;-79
2023/06/26 09:33:21;;;;;;;8.57;5.28;;;;;;;27.23;38.35;99674.28;7712293;32;37618;-79
2023/06/26 09:37:37;;;;;;;9.60;5.20;;;;;;;26.99;37.44;99673.69;7737740;32;37847;-78
2023/06/26 09:41:56;;;;;;;11.55;5.10;;;;;;;27.46;38.20;99669.31;7737098;32;39259;-80
2023/06/26 09:46:17;;;;;;;10.88;5.37;;;;;;;27.52;38.80;99662.12;7730350;32;39652;-81
2023/06/26 09:50:34;;;;;;;7.85;4.82;;;;;;;27.63;38.81;99667.81;7715300;32;38411;-80
2023/06/26 09:54:50;;;;;;;7.07;4.22;;;;;;;28.15;38.25;99658.47;7737810;32;36948;-81
2023/06/26 09:59:07;;;;;;;9.95;4.60;;;;;;;28.29;37.62;99652.94;7718574;32;39087;-81
2023/06/26 10:03:23;;;;;;;11.32;4.57;;;;;;;28.49;36.98;99656.19;7713647;32;39983;-82
2023/06/26 10:07:43;;;;;;;9.48;4.32;;;;;;;28.28;36.72;99656.94;7722525;32;37942;-82
2023/06/26 10:12:06;;;;;;;8.68;4.20;;;;;;;28.58;36.33;99651.03;7708153;32;37073;-80
2023/06/26 10:16:31;;;;;;;8.93;4.35;;;;;;;29.14;36.73;99651.47;7722363;32;37588;-79
2023/06/26 10:20:48;;;;;;;10.73;4.15;;;;;;;29.33;35.38;99644.66;7712899;32;39924;-78
2023/06/26 10:25:06;;;;;;;7.30;3.70;;;;;;;29.49;34.74;99638.62;7722248;32;36149;-77
2023/06/26 10:29:23;;;;;;;6.35;3.53;;;;;;;29.42;33.18;99640.66;7710347;32;37050;-76
2023/06/26 10:33:40;;;;;;;8.27;3.80;;;;;;;29.49;33.79;99638.62;7721878;32;39280;-78
2023/06/26 10:38:03;;;;;;;9.18;3.92;;;;;;;29.30;34.08;99642.66;7735289;32;39980;-78
2023/06/26 10:42:36;;;;;;;8.07;3.85;;;;;;;29.42;31.74;99630.22;7723516;32;37559;-77
2023/06/26 10:46:53;;;;;;;6.30;3.40;;;;;;;29.63;31.09;99631.38;7710562;32;37367;-77
2023/06/26 10:51:18;;;;;;;11.10;3.95;;;;;;;30.18;33.02;99629.97;7714076;32;40101;-78
2023/06/26 10:55:35;;;;;;;7.10;3.75;;;;;;;30.02;32.05;99617.22;7726285;32;41617;-77
2023/06/26 11:00:11;;;;;;;7.25;4.03;;;;;;;29.39;31.16;99623.41;7732033;32;37975;-76
2023/06/26 11:04:49;;;;;;;7.00;3.97;;;;;;;29.61;32.71;99622.56;7720999;32;37127;-77
2023/06/26 11:09:10;;;;;;;6.82;3.72;;;;;;;29.55;33.15;99619.37;7735223;32;39286;-76
2023/06/26 11:13:28;;;;;;;12.50;3.90;;;;;;;29.00;33.15;99620.63;7714498;32;42409;-77
2023/06/26 11:17:44;;;;;;;7.53;3.70;;;;;;;29.38;34.20;99618.19;7735232;32;37893;-77
2023/06/26 11:22:04;;;;;;;7.03;3.58;;;;;;;29.74;31.97;99615.28;7739732;32;36726;-77
2023/06/26 11:26:21;;;;;;;8.10;3.45;;;;;;;29.17;32.06;99614.22;7739610;32;40997;-77
2023/06/26 11:30:39;;;;;;;6.10;3.15;;;;;;;29.45;33.64;99609.75;7739538;32;40958;-77
2023/06/26 11:34:56;;;;;;;7.93;3.10;;;;;;;30.13;31.78;99605.91;7739448;32;37932;-78
2023/06/26 11:39:12;;;;;;;6.32;3.35;;;;;;;29.83;31.30;99596.00;7737733;32;37072;-77
2023/06/26 11:43:29;;;;;;;6.30;3.42;;;;;;;29.71;30.62;99602.06;7736756;32;39457;-76
2023/06/26 11:47:45;;;;;;;6.22;3.40;;;;;;;29.94;30.11;99595.97;7734403;32;40908;-78
2023/06/26 11:52:03;;;;;;;9.32;3.95;;;;;;;30.15;30.12;99595.88;7734278;32;37536;-77
2023/06/26 11:56:22;;;;;;;6.68;3.35;;;;;;;29.53;29.47;99597.31;7734682;32;37025;-77
2023/06/26 12:00:44;;;;;;;6.25;3.47;;;;;;;29.99;31.17;99600.38;7736331;32;38715;-77
2023/06/26 12:05:00;;;;;;;5.97;3.78;;;;;;;29.78;34.71;99593.62;7739178;32;40104;-77
2023/06/26 12:09:21;;;;;;;15.95;4.43;;;;;;;30.29;36.04;99599.81;7724600;32;37857;-72
2023/06/26 12:13:37;;;;;;;5.03;3.22;;;;;;;30.71;35.07;99597.94;7739057;32;37435;-80
2023/06/26 12:17:54;;;;;;;8.48;3.50;;;;;;;31.31;34.29;99590.19;7739247;32;39341;-80
2023/06/26 12:22:11;;;;;;;7.45;3.42;;;;;;;32.01;30.62;99597.41;7725178;32;40098;-75
2023/06/26 12:26:33;;;;;;;5.15;3.05;;;;;;;31.95;30.08;99591.47;7738941;32;38878;-75
2023/06/26 12:31:09;;;;;;;;;;;;;;;31.19;28.17;99594.31;7738826;32;37896;-75
2023/06/26 12:35:25;;;;;;;6.47;3.25;;;;;;;31.72;26.87;99583.72;7739086;32;39714;-77
2023/06/26 12:39:53;;;;;;;6.60;2.95;;;;;;;32.05;27.31;99581.31;7725054;32;39903;-77
2023/06/26 12:44:29;;;;;;;6.25;3.30;;;;;;;32.32;25.44;99583.31;7723727;32;37857;-78
2023/06/26 12:48:47;;;;;;;6.60;2.80;;;;;;;31.59;26.69;99588.28;7738626;32;37789;-78
2023/06/26 12:53:03;;;;;;;5.20;3.08;;;;;;;31.33;27.82;99582.09;7734615;32;39389;-78
2023/06/26 12:57:19;;;;;;;7.12;3.20;;;;;;;30.93;27.34;99578.88;7738056;32;38328;-77
2023/06/26 13:01:35;;;;;;;6.40;3.05;;;;;;;31.27;26.10;99572.53;7738436;32;38030;-78
2023/06/26 13:05:52;;;;;;;6.35;3.22;;;;;;;31.36;25.06;99564.38;7738553;32;37117;-77
2023/06/26 13:10:08;;;;;;;9.60;3.28;;;;;;;32.32;25.54;99561.59;7738605;32;40042;-78
2023/06/26 13:14:24;;;;;;;6.12;2.67;;;;;;;32.00;24.32;99565.63;7738229;32;40524;-78
2023/06/26 13:18:41;;;;;;;6.03;3.00;;;;;;;31.77;24.67;99568.34;7738312;32;37611;-78
2023/06/26 13:22:57;;;;;;;5.57;3.10;;;;;;;31.90;25.83;99557.31;7738236;32;37112;-78
2023/06/26 13:27:13;;;;;;;6.80;2.85;;;;;;;31.62;25.34;99565.72;7738268;32;39390;-78
2023/06/26 13:31:30;;;;;;;7.93;3.10;;;;;;;31.99;26.24;99554.78;7738048;32;39931;-77
2023/06/26 13:35:46;;;;;;;6.43;3.22;;;;;;;32.35;26.16;99548.63;7737844;32;37868;-77
2023/06/26 13:40:03;;;;;;;5.18;3.37;;;;;;;32.27;26.09;99550.78;7736633;32;37345;-78
2023/06/26 13:44:19;;;;;;;5.65;3.22;;;;;;;31.99;26.07;99546.31;7734650;32;40144;-78
2023/06/26 13:48:53;;;;;;;10.00;3.08;;;;;;;32.64;25.25;99545.41;7736811;32;39989;-78
2023/06/26 13:53:09;;;;;;;4.35;2.55;;;;;;;32.59;26.81;99534.56;7736331;32;37988;-78
2023/06/26 13:57:28;;;;;;;4.75;2.83;;;;;;;32.84;26.07;99534.97;7737146;32;37062;-78
2023/06/26 14:01:44;;;;;;;5.47;3.08;;;;;;;33.01;25.16;99527.38;7737907;32;38899;-78
2023/06/26 14:06:01;;;;;;;6.53;3.08;;;;;;;31.66;25.97;99520.59;7737738;32;40674;-78
2023/06/26 14:10:17;;;;;;;5.28;3.08;;;;;;;32.65;25.29;99522.41;7737631;32;37866;-78
2023/06/26 14:14:33;;;;;;;7.97;3.60;;;;;;;33.67;24.48;99517.25;7737580;32;37173;-78
2023/06/26 14:18:49;;;;;;;6.57;2.95;;;;;;;33.61;24.56;99521.78;7737428;32;39589;-78
2023/06/26 14:23:06;;;;;;;4.28;2.80;;;;;;;33.60;24.82;99516.56;7737354;32;40753;-78
2023/06/26 14:27:22;;;;;;;6.87;3.22;;;;;;;34.00;24.53;99520.16;7737202;32;38628;-78
2023/06/26 14:31:38;;;;;;;4.97;2.87;;;;;;;34.11;24.29;99516.28;7737334;32;37334;-78
2023/06/26 14:35:54;;;;;;;5.60;3.37;;;;;;;34.33;24.36;99517.41;7737208;32;39289;-78
2023/06/26 14:40:11;;;;;;;4.53;2.92;;;;;;;33.67;25.10;99517.25;7737062;32;41248;-78
2023/06/26 14:44:28;;;;;;;7.30;3.10;;;;;;;33.30;23.90;99516.34;7736936;32;38729;-78
2023/06/26 14:48:46;;;;;;;8.45;3.47;;;;;;;32.84;25.06;99522.84;7723197;32;37052;-79
2023/06/26 14:53:02;;;;;;;6.25;3.62;;;;;;;32.32;24.16;99510.00;7737536;32;39297;-78
2023/06/26 14:57:18;;;;;;;5.55;3.35;;;;;;;32.64;23.79;99511.53;7740040;32;39786;-78
2023/06/26 15:01:34;;;;;;;6.85;3.30;;;;;;;32.08;25.63;99515.63;7739808;32;37621;-78
2023/06/26 15:05:51;;;;;;;6.62;3.03;;;;;;;32.27;26.02;99513.31;7739975;32;37207;-78
2023/06/26 15:10:08;;;;;;;5.47;3.37;;;;;;;32.53;25.84;99501.19;7739925;32;39350;-78
2023/06/26 15:14:24;;;;;;;7.53;3.10;;;;;;;33.03;24.28;99493.88;7739596;32;40745;-78
2023/06/26 15:18:41;;;;;;;4.45;3.08;;;;;;;32.89;24.37;99497.78;7739639;32;38731;-78
2023/06/26 15:22:58;;;;;;;7.45;3.42;;;;;;;32.53;26.48;99495.56;7739752;32;36741;-78
2023/06/26 15:27:14;;;;;;;6.43;3.08;;;;;;;32.35;27.59;99486.59;7739705;32;39339;-78
2023/06/26 15:31:30;;;;;;;7.82;3.72;;;;;;;32.04;30.65;99500.72;7739649;32;38782;-78
2023/06/26 15:35:47;;;;;;;6.07;3.15;;;;;;;31.99;29.11;99495.56;7725746;32;37846;-78
2023/06/26 15:40:03;;;;;;;6.37;3.20;;;;;;;32.00;29.40;99489.50;7739476;32;37988;-77
2023/06/26 15:44:20;;;;;;;7.28;3.30;;;;;;;32.10;28.10;99493.44;7725720;32;40127;-78
2023/06/26 15:48:36;;;;;;;6.45;2.85;;;;;;;32.24;28.63;99481.13;7739353;32;40851;-77
2023/06/26 15:52:56;;;;;;;4.80;3.15;;;;;;;32.59;27.15;99484.56;7739095;32;38541;-78
2023/06/26 15:57:13;;;;;;;5.28;2.75;;;;;;;32.62;26.66;99468.84;7739324;32;37692;-77
2023/06/26 16:01:29;;;;;;;6.55;3.22;;;;;;;32.90;26.85;99476.78;7739321;32;40084;-77
2023/06/26 16:05:45;;;;;;;5.70;2.87;;;;;;;32.93;27.21;99475.13;7738606;32;40832;-78
2023/06/26 16:10:01;;;;;;;7.12;3.35;;;;;;;32.64;26.18;99466.41;7739074;32;38101;-77
2023/06/26 16:14:18;;;;;;;6.43;3.47;;;;;;;32.24;28.23;99477.53;7739075;32;36979;-78
2023/06/26 16:18:34;;;;;;;6.60;3.42;;;;;;;31.94;28.84;99474.31;7739092;32;39197;-78
2023/06/26 16:22:51;;;;;;;7.65;3.12;;;;;;;32.06;28.99;99478.56;7738982;32;39713;-78
2023/06/26 16:27:07;;;;;;;8.48;3.28;;;;;;;32.17;27.96;99467.94;7738789;32;38594;-78
2023/06/26 16:31:23;;;;;;;7.15;3.17;;;;;;;31.92;28.64;99479.56;7739017;32;37283;-78
2023/06/26 16:35:39;;;;;;;7.60;3.85;;;;;;;32.11;28.47;99475.28;7738810;32;39280;-78
2023/06/26 16:39:56;;;;;;;5.55;3.40;;;;;;;32.10;27.49;99470.06;7738826;32;40001;-78
2023/06/26 16:44:13;;;;;;;6.90;3.33;;;;;;;32.15;28.10;99464.75;7738731;32;37742;-78
2023/06/26 16:48:29;;;;;;;6.43;3.67;;;;;;;32.57;27.69;99458.81;7738722;32;36884;-78
2023/06/26 16:52:45;;;;;;;6.90;3.78;;;;;;;32.53;28.23;99456.06;7738400;32;39516;-78
2023/06/26 16:57:01;;;;;;;6.60;3.45;;;;;;;32.52;27.96;99451.63;7724624;32;40063;-78
2023/06/26 17:01:18;;;;;;;9.48;3.67;;;;;;;32.23;28.49;99456.19;7736422;32;36069;-78
2023/06/26 17:05:34;;;;;;;5.20;3.20;;;;;;;32.26;27.72;99458.16;7737929;32;37265;-76
2023/06/26 17:09:51;;;;;;;6.28;3.67;;;;;;;32.26;28.49;99444.84;7738411;32;39173;-75
2023/06/26 17:14:07;;;;;;;6.22;3.45;;;;;;;32.29;28.07;99446.00;7723657;32;39882;-75
2023/06/26 17:18:23;;;;;;;7.40;3.55;;;;;;;31.98;28.50;99457.34;7738390;32;38743;-75
2023/06/26 17:22:40;;;;;;;6.68;3.37;;;;;;;31.97;28.52;99444.47;7738431;32;37103;-78
2023/06/26 17:27:06;;;;;;;10.90;3.60;;;;;;;32.02;29.26;99446.81;7738223;32;39289;-77
2023/06/26 17:31:23;;;;;;;12.85;3.58;;;;;;;31.66;28.76;99452.97;7725694;32;39695;-77
2023/06/26 17:35:39;;;;;;;6.78;3.87;;;;;;;31.39;29.83;99456.53;7738038;32;38812;-77
2023/06/26 17:39:55;;;;;;;6.32;3.37;;;;;;;31.34;30.36;99448.56;7735963;32;37844;-77
2023/06/26 17:44:11;;;;;;;7.72;3.70;;;;;;;31.14;30.64;99445.56;7735444;32;39339;-76
2023/06/26 17:48:28;;;;;;;9.50;4.22;;;;;;;30.44;32.93;99451.50;7734962;32;39909;-77
2023/06/26 17:52:44;;;;;;;14.13;4.20;;;;;;;30.26;33.97;99444.00;7734036;32;36808;-77
2023/06/26 17:57:00;;;;;;;7.28;3.53;;;;;;;30.27;34.36;99454.03;7733839;32;38121;-78
2023/06/26 18:01:17;;;;;;;8.55;4.68;;;;;;;30.29;33.38;99453.63;7718318;32;39035;-77
2023/06/26 18:05:33;;;;;;;7.37;4.18;;;;;;;29.94;34.67;99456.28;7733632;32;40029;-79
2023/06/26 18:09:49;;;;;;;5.97;4.07;;;;;;;29.77;35.85;99462.81;7719196;32;38796;-78
2023/06/26 18:14:07;;;;;;;11.57;4.15;;;;;;;29.61;36.61;99463.25;7734404;32;36755;-77
2023/06/26 18:18:24;;;;;;;7.50;4.00;;;;;;;29.17;37.54;99468.28;7734521;32;39075;-78
2023/06/26 18:22:40;;;;;;;9.27;4.53;;;;;;;29.24;37.31;99469.47;7734194;32;40497;-79
2023/06/26 18:26:57;;;;;;;9.30;4.45;;;;;;;29.10;37.81;99473.09;7733883;32;38460;-79
2023/06/26 18:31:13;;;;;;;10.70;7.15;;;;;;;28.73;38.83;99480.75;7721225;32;37878;-82
2023/06/26 18:35:29;;;;;;;13.88;5.60;;;;;;;28.48;39.25;99481.56;7711457;32;39341;-84
2023/06/26 18:39:46;;;;;;;9.23;5.45;;;;;;;28.33;39.63;99488.38;7737058;32;40762;-81
2023/06/26 18:44:02;;;;;;;17.73;7.50;;;;;;;28.19;40.10;99497.56;7736900;32;37941;-80
2023/06/26 18:48:18;;;;;;;13.30;6.93;;;;;;;27.96;40.61;99505.53;7736294;32;37072;-82
2023/06/26 18:52:34;;;;;;;19.95;8.45;;;;;;;27.77;41.15;99499.06;7735407;32;39248;-81
2023/06/26 18:56:51;;;;;;;14.43;7.95;;;;;;;27.51;41.92;99494.56;7733208;32;39902;-82
2023/06/26 19:01:07;;;;;;;12.70;7.57;;;;;;;27.52;41.49;99501.78;7731226;32;38748;-80
2023/06/26 19:05:23;;;;;;;11.48;6.07;;;;;;;27.23;42.40;99510.00;7716668;32;37096;-81
2023/06/26 19:09:40;;;;;;;10.88;4.93;;;;;;;27.07;42.59;99510.31;7731154;32;39280;-79
2023/06/26 19:13:57;;;;;;;8.68;4.45;;;;;;;26.98;42.62;99513.47;7730168;32;40871;-79
2023/06/26 19:18:16;;;;;;;8.13;4.53;;;;;;;26.71;43.22;99510.06;7733507;32;38364;-78
2023/06/26 19:22:32;;;;;;;8.75;5.20;;;;;;;26.54;43.96;99508.72;7735859;32;37301;-78
2023/06/26 19:26:49;;;;;;;16.62;7.45;;;;;;;26.40;44.22;99511.41;7722076;32;39765;-80
2023/06/26 19:31:05;;;;;;;10.82;6.55;;;;;;;26.25;44.52;99513.28;7735950;32;40763;-80
2023/06/26 19:35:22;;;;;;;8.50;5.25;;;;;;;26.09;43.92;99516.28;7697265;32;37041;-80
2023/06/26 19:39:38;;;;;;;7.37;4.40;;;;;;;26.03;43.87;99523.44;7727980;32;35686;-80
2023/06/26 19:43:55;;;;;;;11.73;4.95;;;;;;;25.99;43.68;99523.41;7732115;32;39912;-79
2023/06/26 19:48:11;;;;;;;9.45;4.03;;;;;;;25.78;44.18;99521.13;7734503;32;39880;-80
2023/06/26 19:52:27;;;;;;;7.15;4.32;;;;;;;25.57;43.99;99524.47;7718792;32;36702;-79
2023/06/26 19:56:45;;;;;;;6.72;3.67;;;;;;;25.28;44.17;99531.66;7733500;32;37843;-78
2023/06/26 20:01:03;;;;;;;9.77;3.78;;;;;;;25.12;44.04;99532.59;7731866;32;39272;-77
2023/06/26 20:05:19;;;;;;;9.25;5.20;;;;;;;24.96;44.14;99537.56;7719503;32;40047;-79